Time;durP1;ratioP1;P1;durP2;ratioP2;P2;SDS_P1;SDS_P2;PMS_P1;PMS_P2;Temp;Humidity;BMP_temperature;BMP_pressure;BME280_temperature;BME280_humidity;BME280_pressure;Samples;Min_cycle;Max_cycle;Signal;HPM_P1;HPM_P2
2022/06/13 00:02:03;;;;;;;1.73;0.75;;;;;;;19.20;nan;100746.25;4990840;28;20034;-72
2022/06/13 00:04:29;;;;;;;1.33;0.70;;;;;;;19.17;nan;100749.34;4990966;28;20038;-72
2022/06/13 00:06:54;;;;;;;2.00;1.00;;;;;;;19.10;nan;100744.78;4988141;28;20037;-72
2022/06/13 00:09:19;;;;;;;2.75;1.10;;;;;;;19.07;nan;100749.75;4991801;28;20038;-72
2022/06/13 00:11:45;;;;;;;2.85;0.80;;;;;;;19.04;nan;100736.72;4991527;28;20038;-72
2022/06/13 00:14:10;;;;;;;2.67;0.90;;;;;;;19.00;nan;100738.19;4992038;28;20065;-72
2022/06/13 00:16:36;;;;;;;1.65;1.00;;;;;;;18.95;nan;100741.47;4991755;28;20042;-72
2022/06/13 00:19:01;;;;;;;2.42;1.00;;;;;;;18.91;nan;100745.56;4989953;28;20037;-72
2022/06/13 00:21:29;;;;;;;3.08;0.90;;;;;;;18.88;nan;100744.13;4973069;28;20427;-72
2022/06/13 00:23:55;;;;;;;1.48;0.75;;;;;;;18.83;nan;100732.34;4989928;28;20294;-72
2022/06/13 00:26:23;;;;;;;1.10;0.70;;;;;;;18.74;nan;100737.03;4990355;28;20445;-72
2022/06/13 00:28:50;;;;;;;1.90;0.70;;;;;;;18.66;nan;100734.50;4990844;28;20546;-72
2022/06/13 00:31:15;;;;;;;1.05;0.60;;;;;;;18.58;nan;100730.16;4990633;28;20049;-72
2022/06/13 00:33:41;;;;;;;1.35;0.65;;;;;;;18.49;nan;100735.88;4989805;28;20034;-72
2022/06/13 00:36:06;;;;;;;1.27;0.60;;;;;;;18.38;nan;100722.03;4989823;28;20035;-72
2022/06/13 00:38:32;;;;;;;1.20;0.70;;;;;;;18.28;nan;100716.19;4992965;28;20030;-72
2022/06/13 00:40:57;;;;;;;1.83;0.75;;;;;;;18.08;nan;100704.56;4989702;28;20399;-72
2022/06/13 00:43:23;;;;;;;3.17;1.20;;;;;;;17.99;nan;100722.63;4990709;28;20038;-72
2022/06/13 00:45:48;;;;;;;2.63;0.90;;;;;;;17.87;nan;100727.69;4992287;28;20038;-72
2022/06/13 00:48:18;;;;;;;3.20;0.98;;;;;;;17.73;nan;100725.91;4990999;28;20407;-72
2022/06/13 00:50:55;;;;;;;2.35;1.02;;;;;;;17.62;nan;100728.09;4984935;28;20045;-72
2022/06/13 00:53:24;;;;;;;2.30;1.00;;;;;;;17.54;nan;100727.38;4989377;28;20026;-72
2022/06/13 00:55:56;;;;;;;3.00;0.88;;;;;;;17.45;nan;100734.72;4989639;28;20030;-72
2022/06/13 00:58:22;;;;;;;3.00;1.17;;;;;;;17.37;nan;100753.56;4988614;28;20046;-72
2022/06/13 01:00:52;;;;;;;3.33;1.10;;;;;;;17.31;nan;100751.66;4989460;28;20561;-72
2022/06/13 01:03:18;;;;;;;2.88;1.00;;;;;;;17.26;nan;100748.75;4990667;28;20041;-72
2022/06/13 01:05:46;;;;;;;4.30;1.05;;;;;;;17.20;nan;100745.78;4989992;28;20050;-72
2022/06/13 01:08:13;;;;;;;3.90;1.10;;;;;;;17.16;nan;100751.69;4990105;28;20407;-72
2022/06/13 01:14:04;;;;;;;4.70;1.50;;;;;;;17.02;nan;100750.75;4991015;28;20526;-72
2022/06/13 01:17:07;;;;;;;5.07;1.40;;;;;;;16.96;nan;100759.50;4991206;28;20034;-72
2022/06/13 01:19:47;;;;;;;2.95;1.20;;;;;;;16.88;nan;100755.09;4985296;28;20030;-72
2022/06/13 01:22:31;;;;;;;2.78;1.17;;;;;;;16.82;nan;100760.34;4988380;28;20039;-71
2022/06/13 01:25:05;;;;;;;3.40;1.23;;;;;;;16.72;nan;100757.94;4988484;28;20026;-71
2022/06/13 01:27:40;;;;;;;2.45;0.98;;;;;;;16.63;nan;100764.41;4984327;28;20050;-72
2022/06/13 01:30:23;;;;;;;2.63;1.20;;;;;;;16.52;nan;100763.03;4988109;28;20041;-72
2022/06/13 01:33:04;;;;;;;3.28;1.17;;;;;;;16.42;nan;100763.31;4988152;28;20771;-72
2022/06/13 01:35:55;;;;;;;4.13;0.80;;;;;;;16.31;nan;100763.78;4985661;28;20041;-71
2022/06/13 01:38:47;;;;;;;2.63;1.13;;;;;;;16.22;nan;100765.69;4988329;28;20026;-72
2022/06/13 01:41:24;;;;;;;3.17;1.23;;;;;;;16.17;nan;100760.06;4989048;28;20574;-72
2022/06/13 01:44:12;;;;;;;2.20;1.08;;;;;;;16.07;nan;100763.00;4994642;28;20535;-71
2022/06/13 01:47:05;;;;;;;2.53;1.15;;;;;;;16.03;nan;100767.03;4986444;28;20038;-72
2022/06/13 01:49:52;;;;;;;2.13;0.88;;;;;;;15.96;nan;100771.44;4985518;28;20396;-71
2022/06/13 01:52:32;;;;;;;2.67;0.98;;;;;;;15.86;nan;100763.72;4987585;28;20061;-72
2022/06/13 01:55:10;;;;;;;2.47;0.90;;;;;;;15.77;nan;100767.44;4987825;28;20064;-72
2022/06/13 01:57:46;;;;;;;2.10;0.80;;;;;;;15.72;nan;100764.50;4983369;28;20789;-71
2022/06/13 02:00:13;;;;;;;1.52;0.70;;;;;;;15.65;nan;100768.84;4988250;28;20063;-71
2022/06/13 02:02:47;;;;;;;2.22;1.10;;;;;;;15.57;nan;100767.09;4987896;28;20046;-71
2022/06/13 02:05:36;;;;;;;2.13;1.00;;;;;;;15.49;nan;100776.00;4988632;28;20034;-71
2022/06/13 02:08:11;;;;;;;1.80;1.05;;;;;;;15.40;nan;100777.03;4988211;28;20093;-71
2022/06/13 02:10:48;;;;;;;2.88;1.17;;;;;;;15.34;nan;100768.91;4989545;28;20125;-72
2022/06/13 02:13:21;;;;;;;3.13;1.00;;;;;;;15.28;nan;100775.81;4988527;28;20038;-72
2022/06/13 02:15:52;;;;;;;3.40;1.35;;;;;;;15.22;nan;100779.16;4981636;28;20069;-71
2022/06/13 02:18:35;;;;;;;1.98;0.98;;;;;;;15.13;nan;100775.69;4989827;28;20084;-71
2022/06/13 02:21:10;;;;;;;4.22;1.60;;;;;;;15.10;nan;100776.06;4987448;28;20113;-72
2022/06/13 02:23:42;;;;;;;3.90;1.52;;;;;;;15.10;nan;100777.91;4967735;28;20618;-71
2022/06/13 02:26:16;;;;;;;3.30;1.40;;;;;;;15.07;nan;100773.75;4986926;28;20105;-72
2022/06/13 02:28:49;;;;;;;3.70;1.20;;;;;;;15.02;nan;100776.13;4989361;28;20278;-71
2022/06/13 02:31:24;;;;;;;3.15;1.45;;;;;;;14.97;nan;100771.31;4988265;28;20061;-71
2022/06/13 02:34:22;;;;;;;2.63;1.50;;;;;;;14.92;nan;100776.34;4987961;28;20057;-71
2022/06/13 02:37:09;;;;;;;5.03;1.40;;;;;;;14.84;nan;100771.84;4984134;28;20440;-71
2022/06/13 02:39:46;;;;;;;3.78;1.50;;;;;;;14.82;nan;100775.69;4990036;28;20026;-71
2022/06/13 02:42:26;;;;;;;2.55;1.45;;;;;;;14.81;nan;100768.72;4986005;28;20612;-71
2022/06/13 02:45:00;;;;;;;3.65;1.55;;;;;;;14.81;nan;100777.53;4984855;28;20035;-71
2022/06/13 02:47:34;;;;;;;4.00;1.33;;;;;;;14.81;nan;100768.72;4982677;28;20430;-72
2022/06/13 02:50:17;;;;;;;5.30;1.70;;;;;;;14.79;nan;100768.06;4988789;28;20046;-71
2022/06/13 02:53:01;;;;;;;4.95;1.70;;;;;;;14.78;nan;100777.88;4984336;28;20041;-71
2022/06/13 02:55:26;;;;;;;4.45;1.75;;;;;;;14.75;nan;100772.88;4977006;28;20050;-71
2022/06/13 02:58:14;;;;;;;3.63;1.55;;;;;;;14.74;nan;100768.59;4986368;28;20054;-71
2022/06/13 03:01:06;;;;;;;4.93;1.70;;;;;;;14.72;nan;100773.25;4987312;28;20045;-71
2022/06/13 03:03:45;;;;;;;3.47;1.50;;;;;;;14.69;nan;100768.28;4988937;28;20569;-71
2022/06/13 03:06:31;;;;;;;4.07;1.50;;;;;;;14.65;nan;100769.63;4987489;28;20494;-71
2022/06/13 03:09:12;;;;;;;1.90;1.20;;;;;;;14.63;nan;100768.94;4988764;28;20092;-71
2022/06/13 03:11:46;;;;;;;3.50;1.40;;;;;;;14.59;nan;100768.47;4982101;28;20567;-71
2022/06/13 03:14:34;;;;;;;3.85;1.80;;;;;;;14.57;nan;100774.97;4986517;28;20380;-72
2022/06/13 03:17:04;;;;;;;4.18;1.60;;;;;;;14.52;nan;100772.81;4989218;28;20034;-71
2022/06/13 03:19:50;;;;;;;3.40;1.73;;;;;;;14.49;nan;100775.81;4970563;28;20026;-73
2022/06/13 03:22:28;;;;;;;3.15;1.30;;;;;;;14.44;nan;100784.31;4985094;28;20038;-71
2022/06/13 03:25:10;;;;;;;3.55;1.63;;;;;;;14.41;nan;100783.81;4985642;28;20499;-72
2022/06/13 03:28:03;;;;;;;;;;;;;;;14.36;nan;100786.97;4988108;28;20133;-71
2022/06/13 03:30:31;;;;;;;3.78;1.30;;;;;;;14.35;nan;100793.31;4978690;28;20040;-71
2022/06/13 03:35:50;;;;;;;;;;;;;;;14.29;nan;100804.59;4988149;28;20558;-71
2022/06/13 03:38:21;;;;;;;3.75;1.58;;;;;;;14.28;nan;100807.44;4987315;28;19918;-71
2022/06/13 03:40:51;;;;;;;2.85;1.20;;;;;;;14.24;nan;100817.59;4986670;28;20038;-73
2022/06/13 03:43:28;;;;;;;3.00;1.30;;;;;;;14.23;nan;100818.59;4990516;28;20038;-71
2022/06/13 03:46:01;;;;;;;2.72;1.25;;;;;;;14.21;nan;100824.06;4987591;28;20220;-72
2022/06/13 03:48:34;;;;;;;3.35;1.73;;;;;;;14.22;nan;100824.91;4987481;28;20145;-71
2022/06/13 03:51:04;;;;;;;3.08;1.60;;;;;;;14.24;nan;100829.06;4982461;28;20189;-71
2022/06/13 03:53:39;;;;;;;2.70;1.48;;;;;;;14.29;nan;100831.22;4971667;28;20031;-71
2022/06/13 03:56:22;;;;;;;3.40;1.65;;;;;;;14.31;nan;100837.19;4986669;28;20058;-73
2022/06/13 03:59:00;;;;;;;3.47;1.20;;;;;;;14.32;nan;100840.69;4986545;28;20058;-72
2022/06/13 04:01:36;;;;;;;3.40;1.35;;;;;;;14.33;nan;100837.88;4984765;28;20030;-73
2022/06/13 04:04:02;;;;;;;2.50;1.52;;;;;;;14.32;nan;100846.00;4986403;28;20042;-73
2022/06/13 04:06:42;;;;;;;3.47;1.60;;;;;;;14.33;nan;100840.53;4986419;28;20519;-72
2022/06/13 04:09:18;;;;;;;5.07;1.88;;;;;;;14.34;nan;100846.66;4987800;28;20439;-73
2022/06/13 04:12:18;;;;;;;3.95;1.60;;;;;;;14.36;nan;100848.16;4987836;28;20527;-73
2022/06/13 04:15:16;;;;;;;2.83;1.80;;;;;;;14.42;nan;100844.84;4963727;28;20070;-73
2022/06/13 04:18:02;;;;;;;4.22;1.70;;;;;;;14.49;nan;100852.13;4982680;28;20537;-73
2022/06/13 04:20:33;;;;;;;;;;;;;;;14.52;nan;100860.63;4985081;28;21747;-73
2022/06/13 04:23:14;;;;;;;3.47;1.70;;;;;;;14.55;nan;100849.66;4969192;28;20101;-73
2022/06/13 04:25:45;;;;;;;4.13;1.90;;;;;;;14.61;nan;100862.28;4982687;28;20495;-73
2022/06/13 04:28:22;;;;;;;4.85;2.17;;;;;;;14.68;nan;100857.09;4986477;28;20061;-73
2022/06/13 04:30:50;;;;;;;3.38;1.80;;;;;;;14.74;nan;100863.59;4990682;28;20447;-70
2022/06/13 04:33:40;;;;;;;4.20;2.15;;;;;;;14.80;nan;100861.06;4989353;28;20084;-73
2022/06/13 04:36:10;;;;;;;4.72;2.05;;;;;;;14.89;nan;100861.88;4983065;28;20035;-73
2022/06/13 04:38:37;;;;;;;3.10;1.70;;;;;;;14.96;nan;100854.84;4991946;28;20045;-72
2022/06/13 04:41:04;;;;;;;3.22;1.45;;;;;;;15.05;nan;100848.50;4990071;28;20174;-73
2022/06/13 04:43:41;;;;;;;4.07;1.83;;;;;;;15.11;nan;100859.44;4995499;28;20026;-72
2022/06/13 04:46:08;;;;;;;2.50;1.67;;;;;;;15.17;nan;100864.91;4990477;28;20129;-73
2022/06/13 04:48:33;;;;;;;3.53;2.20;;;;;;;15.24;nan;100868.56;4989844;28;20121;-72
2022/06/13 04:51:08;;;;;;;3.35;1.75;;;;;;;15.37;nan;100869.81;4989106;28;20587;-73
2022/06/13 04:54:06;;;;;;;3.22;1.60;;;;;;;15.49;nan;100871.06;4986355;28;20034;-72
2022/06/13 04:56:33;;;;;;;3.85;1.42;;;;;;;15.61;nan;100879.50;4984254;28;20030;-73
2022/06/13 04:59:00;;;;;;;3.50;1.70;;;;;;;15.73;nan;100880.81;4988808;28;20027;-73
2022/06/13 05:01:35;;;;;;;3.85;1.50;;;;;;;15.84;nan;100882.22;4990500;28;20037;-73
2022/06/13 05:04:06;;;;;;;5.07;1.70;;;;;;;15.97;nan;100887.81;4989330;28;20038;-73
2022/06/13 05:06:39;;;;;;;3.20;1.70;;;;;;;16.07;nan;100883.06;4984616;28;20077;-73
2022/06/13 05:09:09;;;;;;;3.40;1.60;;;;;;;16.11;nan;100889.69;4992479;28;20293;-73
2022/06/13 05:12:06;;;;;;;3.45;1.45;;;;;;;16.16;nan;100898.97;4988442;28;20138;-73
2022/06/13 05:14:42;;;;;;;3.47;1.40;;;;;;;16.18;nan;100908.47;4988482;28;20389;-72
2022/06/13 05:17:25;;;;;;;2.55;1.40;;;;;;;16.23;nan;100910.59;4989556;28;20038;-73
2022/06/13 05:20:17;;;;;;;3.40;1.52;;;;;;;16.32;nan;100909.53;4987574;28;20084;-73
2022/06/13 05:22:53;;;;;;;;;;;;;;;16.41;nan;100907.63;4986164;28;20120;-72
2022/06/13 05:25:29;;;;;;;4.30;1.63;;;;;;;16.49;nan;100908.38;4962916;28;19921;-73
2022/06/13 05:27:54;;;;;;;2.90;1.42;;;;;;;16.53;nan;100903.50;4989468;28;20034;-73
2022/06/13 05:30:21;;;;;;;3.15;1.30;;;;;;;16.59;nan;100918.81;4990236;28;20049;-73
2022/06/13 05:32:47;;;;;;;2.50;1.50;;;;;;;16.65;nan;100915.38;4988404;28;20407;-73
2022/06/13 05:35:17;;;;;;;1.85;1.20;;;;;;;16.76;nan;100920.28;4989673;28;20049;-73
2022/06/13 05:37:42;;;;;;;3.08;1.30;;;;;;;16.85;nan;100920.22;4988695;28;20053;-73
2022/06/13 05:40:18;;;;;;;2.13;1.20;;;;;;;16.92;nan;100929.16;4989037;28;20030;-73
2022/06/13 05:42:44;;;;;;;7.97;1.42;;;;;;;17.00;nan;100923.75;4994130;28;20398;-73
2022/06/13 05:45:15;;;;;;;2.30;1.30;;;;;;;17.07;nan;100922.00;4989759;28;20034;-73
2022/06/13 05:47:42;;;;;;;3.72;1.70;;;;;;;17.07;nan;100932.69;4989115;28;20599;-73
2022/06/13 05:50:20;;;;;;;3.53;1.77;;;;;;;17.06;nan;100923.00;4971345;28;20034;-73
2022/06/13 05:52:45;;;;;;;4.60;1.83;;;;;;;17.07;nan;100929.19;4988243;28;20026;-73
2022/06/13 05:55:12;;;;;;;4.85;1.67;;;;;;;17.22;nan;100931.84;4989523;28;20038;-73
2022/06/13 05:57:38;;;;;;;3.20;1.35;;;;;;;17.52;nan;100927.28;4988060;28;20185;-73
2022/06/13 06:00:06;;;;;;;6.30;1.90;;;;;;;17.92;nan;100933.94;4987618;28;20029;-73
2022/06/13 06:02:31;;;;;;;5.78;1.83;;;;;;;18.29;nan;100939.25;4988652;28;20031;-73
2022/06/13 06:04:56;;;;;;;5.95;1.88;;;;;;;18.63;nan;100936.63;4988048;28;20122;-73
2022/06/13 06:07:22;;;;;;;5.20;1.70;;;;;;;19.04;nan;100937.75;4989092;28;20137;-73
2022/06/13 06:09:47;;;;;;;5.10;1.55;;;;;;;19.46;nan;100942.09;4988982;28;20293;-73
2022/06/13 06:12:12;;;;;;;3.92;1.50;;;;;;;19.83;nan;100950.72;4988740;28;20591;-73
2022/06/13 06:14:37;;;;;;;4.20;1.33;;;;;;;20.16;nan;100949.94;4989774;28;20038;-73
2022/06/13 06:17:03;;;;;;;4.13;1.48;;;;;;;20.36;nan;100949.97;4986437;28;20655;-73
2022/06/13 06:19:29;;;;;;;6.00;1.85;;;;;;;20.55;nan;100946.47;4988545;28;20093;-74
2022/06/13 06:21:55;;;;;;;3.22;1.48;;;;;;;20.66;nan;100944.19;4987178;28;20060;-73
2022/06/13 06:24:20;;;;;;;3.80;1.50;;;;;;;20.79;nan;100952.25;4987049;28;20479;-74
2022/06/13 06:26:45;;;;;;;6.07;1.60;;;;;;;20.87;nan;100946.66;4986483;28;20045;-74
2022/06/13 06:29:11;;;;;;;3.38;1.48;;;;;;;21.18;nan;100942.44;4988136;28;20042;-74
2022/06/13 06:31:37;;;;;;;3.95;1.50;;;;;;;21.45;nan;100942.38;4987798;28;20507;-74
2022/06/13 06:34:02;;;;;;;4.35;1.58;;;;;;;21.55;nan;100948.97;4987205;28;20250;-74
2022/06/13 06:36:27;;;;;;;3.17;1.40;;;;;;;21.66;nan;100952.84;4971781;28;20057;-74
2022/06/13 06:38:53;;;;;;;4.63;1.50;;;;;;;21.97;nan;100959.28;4984598;28;20038;-74
2022/06/13 06:41:18;;;;;;;4.18;1.50;;;;;;;22.24;nan;100955.44;4992354;28;20719;-74
2022/06/13 06:43:43;;;;;;;4.43;1.42;;;;;;;22.69;nan;100951.72;4998572;28;20520;-74
2022/06/13 06:46:09;;;;;;;4.13;1.60;;;;;;;22.92;nan;100955.66;4972219;28;20044;-73
2022/06/13 06:48:36;;;;;;;3.90;1.45;;;;;;;23.08;nan;100955.94;4997863;28;20282;-73
2022/06/13 06:51:05;;;;;;;2.53;1.05;;;;;;;23.33;nan;100955.03;4986878;28;20042;-73
2022/06/13 06:59:53;;;;;;;4.70;1.50;;;;;;;23.56;nan;100962.44;4985619;28;20038;-73
2022/06/13 07:01:44;;;;;;;3.38;1.27;;;;;;;24.19;nan;100961.16;4989920;28;20049;-74
2022/06/13 07:04:09;;;;;;;3.70;1.10;;;;;;;24.42;nan;100965.78;4988987;28;20092;-73
2022/06/13 07:06:34;;;;;;;2.20;0.90;;;;;;;24.81;nan;100968.91;4989395;28;20018;-74
2022/06/13 07:08:59;;;;;;;3.87;1.43;;;;;;;25.01;nan;100963.13;4991225;28;20296;-74
2022/06/13 07:14:10;;;;;;;3.47;1.13;;;;;;;25.05;nan;100961.59;4986964;28;20312;-74
2022/06/13 07:16:35;;;;;;;3.15;1.17;;;;;;;24.79;nan;100963.75;4987984;28;20042;-74
2022/06/13 07:19:00;;;;;;;3.63;1.33;;;;;;;24.80;nan;100972.66;4988137;28;20141;-73
2022/06/13 07:21:25;;;;;;;1.77;0.90;;;;;;;24.99;nan;100963.38;4985195;28;20430;-74
2022/06/13 07:23:51;;;;;;;3.80;1.38;;;;;;;25.07;nan;100970.28;4986603;28;20076;-74
2022/06/13 07:26:16;;;;;;;2.97;1.23;;;;;;;25.21;nan;100971.72;4987296;28;20113;-74
2022/06/13 07:28:41;;;;;;;2.40;1.05;;;;;;;25.32;nan;100969.25;4987766;28;20046;-74
2022/06/13 07:31:16;;;;;;;3.40;1.25;;;;;;;25.45;nan;100968.13;4986625;28;20133;-74
2022/06/13 07:33:41;;;;;;;3.03;1.17;;;;;;;25.35;nan;100976.88;4986934;28;20038;-73
2022/06/13 07:36:06;;;;;;;3.83;1.10;;;;;;;25.23;nan;100981.50;4987784;28;20478;-76
2022/06/13 07:38:32;;;;;;;2.83;1.10;;;;;;;25.19;nan;100978.41;4996042;28;20514;-74
2022/06/13 07:41:00;;;;;;;3.57;1.30;;;;;;;25.12;nan;100981.25;4989823;28;20041;-74
2022/06/13 07:43:29;;;;;;;3.70;1.25;;;;;;;25.05;nan;100980.56;4993966;28;20319;-74
2022/06/13 07:45:57;;;;;;;3.38;1.25;;;;;;;25.21;nan;100981.72;4993514;28;20084;-74
2022/06/13 07:48:23;;;;;;;3.53;1.25;;;;;;;25.60;nan;100974.69;4986244;28;20386;-74
2022/06/13 07:50:48;;;;;;;3.28;1.17;;;;;;;25.77;nan;100973.94;4967510;28;20138;-74
2022/06/13 07:53:13;;;;;;;3.72;1.10;;;;;;;26.15;nan;100969.75;4985259;28;20052;-74
2022/06/13 07:55:39;;;;;;;4.63;1.23;;;;;;;26.40;nan;100980.19;4986567;28;20038;-74
2022/06/13 07:58:06;;;;;;;3.53;1.40;;;;;;;26.27;nan;100974.03;4985247;28;20035;-74
2022/06/13 08:00:34;;;;;;;3.47;1.20;;;;;;;26.19;nan;100974.44;4990442;28;20383;-74
2022/06/13 08:03:01;;;;;;;3.17;1.00;;;;;;;26.51;nan;100975.78;4997146;28;20073;-74
2022/06/13 08:05:30;;;;;;;3.17;1.00;;;;;;;26.82;nan;100972.50;4993182;28;20038;-74
2022/06/13 08:07:55;;;;;;;3.38;1.35;;;;;;;27.16;nan;100971.59;4992892;28;20035;-74
2022/06/13 08:10:21;;;;;;;2.17;1.00;;;;;;;27.59;nan;100973.50;4993066;28;20065;-73
2022/06/13 08:12:47;;;;;;;2.38;1.08;;;;;;;28.03;nan;100969.91;4989873;28;20129;-73
2022/06/13 08:15:14;;;;;;;2.72;1.10;;;;;;;28.29;nan;100969.06;4991298;28;20113;-73
2022/06/13 08:17:42;;;;;;;3.22;1.20;;;;;;;28.38;nan;100966.69;4979077;28;20105;-73
2022/06/13 08:20:09;;;;;;;4.30;1.27;;;;;;;28.50;nan;100966.53;4992014;28;20035;-72
2022/06/13 08:22:47;;;;;;;1.77;0.90;;;;;;;29.16;nan;100966.97;4990684;28;20048;-72
2022/06/13 08:25:22;;;;;;;3.53;1.23;;;;;;;29.11;nan;100977.03;4989142;28;20312;-72
2022/06/13 08:27:47;;;;;;;3.80;1.27;;;;;;;28.91;nan;100978.53;4989393;28;20041;-72
2022/06/13 08:30:14;;;;;;;2.95;0.98;;;;;;;28.57;nan;100976.09;4989566;28;20901;-73
2022/06/13 08:32:39;;;;;;;2.50;1.10;;;;;;;28.64;nan;100975.06;4990256;28;20057;-72
2022/06/13 08:35:05;;;;;;;3.45;1.00;;;;;;;29.06;nan;100979.69;4990209;28;20034;-73
2022/06/13 08:37:30;;;;;;;1.83;0.95;;;;;;;29.74;nan;100972.34;4989826;28;20515;-72
2022/06/13 08:39:55;;;;;;;6.30;1.10;;;;;;;30.11;nan;100974.06;4984695;28;20570;-72
2022/06/13 08:42:33;;;;;;;2.10;1.10;;;;;;;30.26;nan;100973.28;4989045;28;20060;-72
2022/06/13 08:45:07;;;;;;;2.70;1.10;;;;;;;29.76;nan;100978.38;4989735;28;20522;-72
2022/06/13 08:47:54;;;;;;;2.78;1.10;;;;;;;29.72;nan;100979.16;4997071;28;20070;-72
2022/06/13 08:50:30;;;;;;;2.88;1.00;;;;;;;30.13;nan;100974.63;4992090;28;20284;-72
2022/06/13 08:53:02;;;;;;;2.75;1.02;;;;;;;31.00;nan;100971.81;4990347;28;20102;-72
2022/06/13 08:55:42;;;;;;;3.60;1.10;;;;;;;31.72;nan;100979.72;4986727;28;20510;-72
2022/06/13 08:58:16;;;;;;;3.05;1.00;;;;;;;31.84;nan;100977.47;4989237;28;20054;-73
2022/06/13 09:00:49;;;;;;;3.65;0.98;;;;;;;32.17;nan;100975.88;4990775;28;20061;-73
2022/06/13 09:03:21;;;;;;;3.35;0.90;;;;;;;32.75;nan;100983.34;4991594;28;20045;-73
2022/06/13 09:06:01;;;;;;;1.48;0.75;;;;;;;32.83;nan;100989.31;4992139;28;20030;-73
2022/06/13 09:08:51;;;;;;;2.80;1.10;;;;;;;32.58;nan;100991.16;4994301;28;20042;-73
2022/06/13 09:11:26;;;;;;;2.92;1.25;;;;;;;32.49;nan;100987.38;4992237;28;20396;-73
2022/06/13 09:14:02;;;;;;;3.30;1.13;;;;;;;32.66;nan;100996.03;4996400;28;20088;-73
2022/06/13 09:16:32;;;;;;;2.28;1.10;;;;;;;32.87;nan;100996.66;4993785;28;20042;-73
2022/06/13 09:19:15;;;;;;;2.03;0.80;;;;;;;33.42;nan;100994.38;4988862;28;20499;-73
2022/06/13 09:21:49;;;;;;;2.88;0.82;;;;;;;33.96;nan;100995.00;4988352;28;20038;-73
2022/06/13 09:24:23;;;;;;;1.85;0.90;;;;;;;33.98;nan;101000.19;4989847;28;20038;-73
2022/06/13 09:26:53;;;;;;;3.60;1.00;;;;;;;33.95;nan;101001.63;4987211;28;20039;-73
2022/06/13 09:29:30;;;;;;;2.50;1.00;;;;;;;33.74;nan;100992.06;4970969;28;20185;-73
2022/06/13 09:32:04;;;;;;;3.47;1.10;;;;;;;34.24;nan;101000.66;4990080;28;20392;-73
2022/06/13 09:34:42;;;;;;;3.20;1.10;;;;;;;33.94;nan;100999.16;4999683;28;20045;-73
2022/06/13 09:37:53;;;;;;;2.38;1.00;;;;;;;33.86;nan;101005.34;4998901;28;20035;-73
2022/06/13 09:40:41;;;;;;;2.40;0.82;;;;;;;33.82;nan;101005.09;4963986;28;20030;-73
2022/06/13 09:43:25;;;;;;;3.72;1.00;;;;;;;34.66;nan;100999.69;4986864;28;20038;-73
2022/06/13 09:46:05;;;;;;;2.55;1.00;;;;;;;35.07;nan;101006.31;4987277;28;20049;-73
2022/06/13 09:48:49;;;;;;;1.80;1.00;;;;;;;35.82;nan;101012.47;4986000;28;20512;-73
2022/06/13 09:51:43;;;;;;;2.38;0.90;;;;;;;36.24;nan;101007.66;4988645;28;20063;-73
2022/06/13 09:54:19;;;;;;;2.67;0.93;;;;;;;35.75;nan;101010.16;4967726;28;20045;-73
2022/06/13 09:56:57;;;;;;;2.38;1.00;;;;;;;34.50;nan;101008.47;4982090;28;20035;-73
2022/06/13 09:59:33;;;;;;;2.35;0.80;;;;;;;32.47;nan;101006.03;4985518;28;20030;-72
2022/06/13 10:02:04;;;;;;;4.57;1.10;;;;;;;32.58;nan;101013.91;4987543;28;20412;-72
2022/06/13 10:04:56;;;;;;;2.35;0.98;;;;;;;33.69;nan;101014.06;4983369;28;20053;-73
2022/06/13 10:07:28;;;;;;;2.78;1.10;;;;;;;34.17;nan;101011.19;4961182;28;20073;-73
2022/06/13 10:10:15;;;;;;;2.88;1.20;;;;;;;34.50;nan;101009.28;4986447;28;20038;-73
2022/06/13 10:12:59;;;;;;;3.00;1.10;;;;;;;34.61;nan;101012.66;4984682;28;20156;-72
2022/06/13 10:15:30;;;;;;;3.00;1.25;;;;;;;34.45;nan;101010.16;4986939;28;20311;-73
2022/06/13 10:18:10;;;;;;;3.80;1.60;;;;;;;33.95;nan;101011.78;4978088;28;20045;-73
2022/06/13 10:20:58;;;;;;;2.55;1.10;;;;;;;34.39;nan;101024.28;4987017;28;20498;-73
2022/06/13 10:23:47;;;;;;;2.78;1.10;;;;;;;31.91;nan;101013.53;4983838;28;20065;-72
2022/06/13 10:26:36;;;;;;;2.10;0.90;;;;;;;32.40;nan;101011.84;4985356;28;20403;-73
2022/06/13 10:29:07;;;;;;;2.70;1.20;;;;;;;31.14;nan;101014.97;4983571;28;20034;-72
2022/06/13 10:31:50;;;;;;;2.97;1.30;;;;;;;30.40;nan;101012.56;4988092;28;20537;-72
2022/06/13 10:34:38;;;;;;;2.70;1.10;;;;;;;30.63;nan;101008.47;4986113;28;20077;-72
2022/06/13 10:37:35;;;;;;;3.13;1.10;;;;;;;31.52;nan;100997.88;4987119;28;20066;-72
2022/06/13 10:40:03;;;;;;;2.60;1.20;;;;;;;31.81;nan;101010.84;4986940;28;20026;-73
2022/06/13 10:42:32;;;;;;;2.22;1.00;;;;;;;30.31;nan;101006.00;4986745;28;20398;-72
2022/06/13 10:44:57;;;;;;;4.20;1.30;;;;;;;30.55;nan;101009.00;4988341;28;20411;-72
2022/06/13 10:47:52;;;;;;;2.45;1.10;;;;;;;29.17;nan;101005.91;4989365;28;20039;-72
2022/06/13 10:50:35;;;;;;;3.95;1.30;;;;;;;28.21;nan;100998.63;4986590;28;20090;-72
2022/06/13 10:53:06;;;;;;;3.53;1.38;;;;;;;27.67;nan;101008.38;4983939;28;20148;-72
2022/06/13 10:55:33;;;;;;;;;;;;;;;26.89;nan;101002.16;4989324;28;20030;-71
2022/06/13 10:58:13;;;;;;;3.33;1.20;;;;;;;26.49;nan;100989.56;4987624;28;19971;-72
2022/06/13 11:00:41;;;;;;;3.50;1.50;;;;;;;26.87;nan;101002.41;4985379;28;20503;-73
2022/06/13 11:03:13;;;;;;;1.73;0.90;;;;;;;30.37;nan;101004.13;4985742;28;20491;-72
2022/06/13 11:05:52;;;;;;;2.75;1.30;;;;;;;32.49;nan;100996.44;4987665;28;20073;-72
2022/06/13 11:08:18;;;;;;;3.15;1.20;;;;;;;33.86;nan;101008.88;4987180;28;20088;-73
2022/06/13 11:11:03;;;;;;;2.88;1.10;;;;;;;34.08;nan;101001.97;4969806;28;20042;-73
2022/06/13 11:13:32;;;;;;;3.67;1.20;;;;;;;33.78;nan;100999.41;4987440;28;20046;-72
2022/06/13 11:24:42;;;;;;;1.90;0.85;;;;;;;32.10;nan;101001.94;4986912;28;20070;-72
2022/06/13 11:30:28;;;;;;;4.30;1.02;;;;;;;34.02;nan;100987.53;4981591;28;20118;-73
2022/06/13 11:33:05;;;;;;;3.35;1.15;;;;;;;33.58;nan;100992.25;4983640;28;20046;-72
2022/06/13 11:35:41;;;;;;;2.15;1.00;;;;;;;31.53;nan;100994.06;4985867;28;20136;-72
2022/06/13 11:38:23;;;;;;;2.30;1.15;;;;;;;32.57;nan;100989.53;4986212;28;20061;-72
2022/06/13 11:41:06;;;;;;;2.42;1.10;;;;;;;34.41;nan;100984.41;4989617;28;20199;-73
2022/06/13 11:44:03;;;;;;;2.55;0.98;;;;;;;36.90;nan;100983.06;4971498;28;20034;-73
2022/06/13 11:46:35;;;;;;;2.75;1.38;;;;;;;38.64;nan;100980.41;4964536;28;20482;-74
2022/06/13 11:49:37;;;;;;;2.90;1.20;;;;;;;39.85;nan;100975.31;4990590;28;20041;-74
2022/06/13 11:55:22;;;;;;;3.30;1.30;;;;;;;39.33;nan;100979.28;4986608;28;20609;-74
2022/06/13 11:57:53;;;;;;;5.47;1.10;;;;;;;36.26;nan;100980.63;4989968;28;20548;-74
2022/06/13 12:00:19;;;;;;;2.95;1.10;;;;;;;34.55;nan;100976.22;4989477;28;20050;-74
2022/06/13 12:02:50;;;;;;;2.00;0.90;;;;;;;33.90;nan;100977.00;4988620;28;20504;-73
2022/06/13 12:05:22;;;;;;;2.22;1.00;;;;;;;32.49;nan;100974.53;4990228;28;20495;-73
2022/06/13 12:08:00;;;;;;;2.92;1.15;;;;;;;33.80;nan;100968.91;4991099;28;20046;-74
2022/06/13 12:10:36;;;;;;;3.95;1.20;;;;;;;33.26;nan;100964.72;4989292;28;20384;-73
2022/06/13 12:13:03;;;;;;;3.00;1.05;;;;;;;31.81;nan;100955.34;4989624;28;20093;-73
2022/06/13 12:15:40;;;;;;;3.20;1.20;;;;;;;30.81;nan;100959.84;4989382;28;20030;-73
2022/06/13 12:18:10;;;;;;;3.00;1.20;;;;;;;29.71;nan;100955.75;4988670;28;20034;-74
2022/06/13 12:21:02;;;;;;;2.47;0.93;;;;;;;29.65;nan;100946.69;4990509;28;20039;-73
2022/06/13 12:23:38;;;;;;;2.15;0.90;;;;;;;31.03;nan;100951.34;4984170;28;20545;-73
2022/06/13 12:26:16;;;;;;;2.90;1.10;;;;;;;29.91;nan;100949.50;4985820;28;20066;-73
2022/06/13 12:28:59;;;;;;;4.93;1.48;;;;;;;29.31;nan;100944.41;4985538;28;20037;-73
2022/06/13 12:31:56;;;;;;;3.70;1.40;;;;;;;28.88;nan;100949.09;4988460;28;20073;-73
2022/06/13 12:34:25;;;;;;;2.95;1.08;;;;;;;28.72;nan;100956.34;4971228;28;20046;-73
2022/06/13 12:37:19;;;;;;;3.25;1.08;;;;;;;28.66;nan;100951.13;4999115;28;20077;-73
2022/06/13 12:39:55;;;;;;;2.83;1.20;;;;;;;28.81;nan;100951.22;4985962;28;20158;-73
2022/06/13 12:42:42;;;;;;;1.70;0.93;;;;;;;28.87;nan;100958.34;4989076;28;20038;-73
2022/06/13 12:45:53;;;;;;;2.90;1.20;;;;;;;28.64;nan;100954.13;4972294;28;20148;-73
2022/06/13 12:48:27;;;;;;;4.63;1.50;;;;;;;28.66;nan;100951.13;4973436;28;20074;-73